Time;durP1;ratioP1;P1;durP2;ratioP2;P2;SDS_P1;SDS_P2;PMS_P1;PMS_P2;Temp;Humidity;BMP_temperature;BMP_pressure;BME280_temperature;BME280_humidity;BME280_pressure;Samples;Min_cycle;Max_cycle;Signal;HPM_P1;HPM_P2
2022/01/10 00:01:38;;;;;;;31.92;13.10;;;;;;;;;;5033134;28;20446;-65
2022/01/10 00:04:03;;;;;;;40.67;12.65;;;;;;;;;;5033204;28;20017;-65
2022/01/10 00:06:29;;;;;;;32.75;14.10;;;;;;;;;;5033238;28;20108;-65
2022/01/10 00:08:54;;;;;;;40.45;13.52;;;;;;;;;;5031894;28;20021;-65
2022/01/10 00:11:19;;;;;;;37.17;13.18;;;;;;;;;;5031682;28;20025;-65
2022/01/10 00:13:44;;;;;;;32.60;13.77;;;;;;;;;;5033059;28;20609;-66
2022/01/10 00:16:09;;;;;;;33.30;12.02;;;;;;;;;;5033192;28;20264;-66
2022/01/10 00:18:34;;;;;;;36.42;12.48;;;;;;;;;;5032717;28;20033;-66
2022/01/10 00:21:00;;;;;;;36.53;12.68;;;;;;;;;;5032340;28;20017;-66
2022/01/10 00:23:25;;;;;;;36.35;12.90;;;;;;;;;;5032020;28;20433;-66
2022/01/10 00:25:50;;;;;;;33.47;13.48;;;;;;;;;;5032246;28;20049;-66
2022/01/10 00:28:15;;;;;;;32.42;13.45;;;;;;;;;;5032885;28;20029;-66
2022/01/10 00:30:40;;;;;;;40.72;14.32;;;;;;;;;;5032928;28;20516;-66
2022/01/10 00:33:05;;;;;;;33.63;13.63;;;;;;;;;;5031068;28;20022;-66
2022/01/10 00:35:31;;;;;;;31.35;13.70;;;;;;;;;;5031849;28;20104;-66
2022/01/10 00:37:56;;;;;;;33.65;12.32;;;;;;;;;;5031320;28;20037;-66
2022/01/10 00:40:21;;;;;;;36.35;13.93;;;;;;;;;;5032515;28;20512;-66
2022/01/10 00:42:57;;;;;;;29.65;13.50;;;;;;;;;;5031713;28;20025;-66
2022/01/10 00:45:26;;;;;;;33.28;13.77;;;;;;;;;;5032889;28;20045;-66
2022/01/10 00:47:51;;;;;;;40.75;13.02;;;;;;;;;;5032191;28;20027;-66
2022/01/10 00:50:16;;;;;;;31.20;13.52;;;;;;;;;;5032187;28;20079;-66
2022/01/10 00:52:42;;;;;;;34.10;12.55;;;;;;;;;;5031813;28;20025;-66
2022/01/10 00:55:08;;;;;;;37.42;12.85;;;;;;;;;;5032377;28;20028;-66
2022/01/10 00:57:33;;;;;;;31.45;12.90;;;;;;;;;;5032173;28;20018;-66
2022/01/10 01:00:00;;;;;;;29.70;12.80;;;;;;;;;;5032296;28;20025;-65
2022/01/10 01:02:31;;;;;;;37.90;12.68;;;;;;;;;;5031598;28;20025;-66
2022/01/10 01:04:56;;;;;;;28.58;12.00;;;;;;;;;;5032153;28;20036;-66
2022/01/10 01:07:22;;;;;;;29.08;12.52;;;;;;;;;;5031812;28;20029;-66
2022/01/10 01:09:55;;;;;;;31.10;12.98;;;;;;;;;;5032168;28;20045;-66
2022/01/10 01:12:35;;;;;;;39.47;12.73;;;;;;;;;;5031532;28;20021;-66
2022/01/10 01:15:17;;;;;;;33.75;11.43;;;;;;;;;;5012586;28;20044;-66
2022/01/10 01:17:57;;;;;;;32.40;12.40;;;;;;;;;;5026945;28;20022;-66
2022/01/10 01:20:42;;;;;;;;;;;;;;;;;;5032630;28;20109;-66
2022/01/10 01:25:52;;;;;;;34.28;11.85;;;;;;;;;;5032488;28;20060;-66
2022/01/10 01:28:18;;;;;;;39.47;12.68;;;;;;;;;;5031529;28;20026;-66
2022/01/10 01:30:43;;;;;;;36.97;14.00;;;;;;;;;;5032075;28;20469;-66
2022/01/10 01:33:08;;;;;;;38.95;13.27;;;;;;;;;;5031173;28;20022;-66
2022/01/10 01:35:35;;;;;;;39.20;13.93;;;;;;;;;;5032130;28;20017;-65
2022/01/10 01:38:00;;;;;;;33.55;12.63;;;;;;;;;;5030081;28;20017;-65
2022/01/10 01:40:28;;;;;;;30.88;12.55;;;;;;;;;;5031380;28;20389;-65
2022/01/10 01:42:54;;;;;;;35.58;11.93;;;;;;;;;;5027846;28;20079;-66
2022/01/10 01:45:34;;;;;;;35.72;13.55;;;;;;;;;;5030072;28;20583;-66
2022/01/10 01:47:59;;;;;;;37.22;12.73;;;;;;;;;;5030601;28;20033;-65
2022/01/10 01:50:24;;;;;;;32.42;11.95;;;;;;;;;;5031134;28;20017;-65
2022/01/10 01:52:49;;;;;;;41.65;13.23;;;;;;;;;;5030890;28;20087;-65
2022/01/10 01:55:14;;;;;;;33.95;11.38;;;;;;;;;;5031441;28;20028;-66
2022/01/10 01:57:40;;;;;;;26.85;11.38;;;;;;;;;;5031109;28;20021;-65
2022/01/10 02:00:05;;;;;;;42.20;12.18;;;;;;;;;;5031100;28;20021;-65
2022/01/10 02:02:31;;;;;;;31.70;11.55;;;;;;;;;;5030838;28;20482;-65
2022/01/10 02:04:57;;;;;;;34.20;11.95;;;;;;;;;;5031132;28;20501;-65
2022/01/10 02:07:22;;;;;;;34.40;12.13;;;;;;;;;;5029770;28;20040;-65
2022/01/10 02:09:47;;;;;;;29.20;11.55;;;;;;;;;;5030377;28;20080;-66
2022/01/10 02:12:12;;;;;;;32.22;11.50;;;;;;;;;;5030481;28;20025;-66
2022/01/10 02:14:40;;;;;;;33.17;10.95;;;;;;;;;;5030769;28;20079;-65
2022/01/10 02:17:05;;;;;;;28.95;11.25;;;;;;;;;;5029683;28;20021;-65
2022/01/10 02:19:30;;;;;;;37.15;10.27;;;;;;;;;;5030540;28;20083;-65
2022/01/10 02:21:56;;;;;;;34.03;11.60;;;;;;;;;;5030683;28;20104;-65
2022/01/10 02:24:23;;;;;;;35.28;11.70;;;;;;;;;;5030718;28;20036;-65
2022/01/10 02:26:49;;;;;;;26.98;10.60;;;;;;;;;;5030693;28;20025;-65
2022/01/10 02:29:14;;;;;;;35.05;10.98;;;;;;;;;;5030009;28;20568;-65
2022/01/10 02:31:40;;;;;;;37.85;11.18;;;;;;;;;;5030673;28;20493;-65
2022/01/10 02:34:05;;;;;;;33.67;12.35;;;;;;;;;;5030501;28;20017;-65
2022/01/10 02:36:31;;;;;;;30.77;11.30;;;;;;;;;;5029708;28;20539;-65
2022/01/10 02:38:58;;;;;;;36.08;10.77;;;;;;;;;;5029369;28;20466;-65
2022/01/10 02:41:27;;;;;;;26.27;11.15;;;;;;;;;;5030293;28;20036;-65
2022/01/10 02:43:53;;;;;;;25.50;10.25;;;;;;;;;;5029732;28;20441;-65
2022/01/10 02:46:18;;;;;;;29.20;10.63;;;;;;;;;;5030186;28;20497;-65
2022/01/10 02:48:43;;;;;;;27.10;9.95;;;;;;;;;;5030260;28;20025;-65
2022/01/10 02:51:08;;;;;;;27.02;10.00;;;;;;;;;;5030003;28;20095;-65
2022/01/10 02:53:33;;;;;;;32.13;10.82;;;;;;;;;;5030500;28;20025;-65
2022/01/10 02:55:59;;;;;;;21.45;9.98;;;;;;;;;;5030041;28;20021;-65
2022/01/10 02:58:24;;;;;;;28.17;10.80;;;;;;;;;;5029184;28;20489;-65
2022/01/10 03:00:49;;;;;;;27.10;10.63;;;;;;;;;;5030215;28;20032;-65
2022/01/10 03:03:14;;;;;;;31.77;10.68;;;;;;;;;;5029128;28;20433;-65
2022/01/10 03:05:40;;;;;;;24.80;10.18;;;;;;;;;;5030600;28;20021;-65
2022/01/10 03:08:05;;;;;;;24.90;11.07;;;;;;;;;;5029927;28;20424;-65
2022/01/10 03:10:30;;;;;;;26.23;10.25;;;;;;;;;;5030007;28;20053;-65
2022/01/10 03:12:56;;;;;;;26.05;10.85;;;;;;;;;;5047362;23;20033;-68
2022/01/10 03:15:22;;;;;;;29.77;10.02;;;;;;;;;;5010381;28;20036;-68
2022/01/10 03:17:47;;;;;;;31.75;9.68;;;;;;;;;;5010405;28;20034;-69
2022/01/10 03:20:12;;;;;;;36.28;11.38;;;;;;;;;;5009760;28;20059;-68
2022/01/10 03:22:37;;;;;;;26.17;10.82;;;;;;;;;;5009950;28;20072;-68
2022/01/10 03:25:03;;;;;;;24.23;9.25;;;;;;;;;;5010319;28;20018;-68
2022/01/10 03:27:28;;;;;;;27.13;9.52;;;;;;;;;;5008152;28;20493;-68
2022/01/10 03:29:53;;;;;;;33.15;10.80;;;;;;;;;;5010741;28;20462;-68
2022/01/10 03:32:19;;;;;;;22.35;9.35;;;;;;;;;;5009593;28;20030;-68
2022/01/10 03:34:44;;;;;;;25.17;9.95;;;;;;;;;;5009944;28;20106;-68
2022/01/10 03:37:09;;;;;;;29.35;9.60;;;;;;;;;;5009984;28;20018;-69
2022/01/10 03:39:35;;;;;;;25.45;9.88;;;;;;;;;;5009938;28;20022;-69
2022/01/10 03:42:00;;;;;;;25.45;10.27;;;;;;;;;;5009914;28;20029;-69
2022/01/10 03:44:25;;;;;;;24.20;9.90;;;;;;;;;;5010245;28;20179;-69
2022/01/10 03:46:51;;;;;;;33.45;10.50;;;;;;;;;;5009721;28;20050;-68
2022/01/10 03:49:16;;;;;;;25.33;10.23;;;;;;;;;;5009841;28;20057;-69
2022/01/10 03:51:42;;;;;;;26.75;9.50;;;;;;;;;;5010036;28;20109;-68
2022/01/10 03:54:08;;;;;;;27.45;9.82;;;;;;;;;;5009660;28;20026;-69
2022/01/10 03:56:33;;;;;;;27.08;9.82;;;;;;;;;;5009735;28;20463;-68
2022/01/10 03:58:58;;;;;;;26.30;9.93;;;;;;;;;;5010170;28;20357;-69
2022/01/10 04:01:24;;;;;;;30.00;10.20;;;;;;;;;;5008704;28;20029;-69
2022/01/10 04:03:49;;;;;;;23.48;9.90;;;;;;;;;;5009372;28;20100;-68
2022/01/10 04:06:14;;;;;;;29.63;10.45;;;;;;;;;;5009427;28;20113;-68
2022/01/10 04:08:39;;;;;;;32.65;11.23;;;;;;;;;;5009453;28;20470;-68
2022/01/10 04:11:05;;;;;;;22.80;10.15;;;;;;;;;;5011158;28;20105;-69
2022/01/10 04:13:30;;;;;;;26.98;10.63;;;;;;;;;;5013545;28;20025;-68
2022/01/10 04:15:55;;;;;;;20.73;9.95;;;;;;;;;;5011597;28;20026;-69
2022/01/10 04:18:20;;;;;;;24.75;10.80;;;;;;;;;;5012958;28;20060;-69
2022/01/10 04:20:46;;;;;;;24.48;10.32;;;;;;;;;;5012592;28;20056;-68
2022/01/10 04:23:11;;;;;;;30.15;10.70;;;;;;;;;;5013210;28;20028;-69
2022/01/10 04:25:37;;;;;;;28.38;10.50;;;;;;;;;;5012685;28;20018;-69
2022/01/10 04:28:02;;;;;;;32.33;10.48;;;;;;;;;;5012780;28;20018;-69
2022/01/10 04:30:27;;;;;;;33.97;11.60;;;;;;;;;;5012879;28;20064;-69
2022/01/10 04:32:53;;;;;;;28.23;10.68;;;;;;;;;;5012914;28;20021;-68
2022/01/10 04:35:18;;;;;;;35.70;11.02;;;;;;;;;;5012496;28;20390;-68
2022/01/10 04:37:43;;;;;;;28.17;11.75;;;;;;;;;;5012496;28;20062;-68
2022/01/10 04:40:09;;;;;;;24.58;10.77;;;;;;;;;;5012552;28;20478;-68
2022/01/10 04:42:34;;;;;;;41.83;12.07;;;;;;;;;;5012219;28;20044;-69
2022/01/10 04:44:59;;;;;;;36.42;10.55;;;;;;;;;;5012671;28;20126;-68
2022/01/10 04:47:24;;;;;;;33.72;12.93;;;;;;;;;;5012120;28;20029;-69
2022/01/10 04:52:33;;;;;;;35.15;10.93;;;;;;;;;;5008849;28;20029;-68
2022/01/10 04:54:59;;;;;;;40.03;12.30;;;;;;;;;;5012260;28;20018;-68
2022/01/10 04:57:25;;;;;;;33.00;11.75;;;;;;;;;;5011981;28;20030;-69
2022/01/10 04:59:50;;;;;;;42.50;14.15;;;;;;;;;;5011022;28;20033;-68
2022/01/10 05:02:15;;;;;;;38.28;13.32;;;;;;;;;;5011916;28;20033;-69
2022/01/10 05:04:40;;;;;;;38.40;11.65;;;;;;;;;;5012217;28;20439;-68
2022/01/10 05:07:06;;;;;;;28.90;11.50;;;;;;;;;;5010906;28;20030;-69
2022/01/10 05:09:31;;;;;;;33.35;11.95;;;;;;;;;;5011087;28;20014;-68
2022/01/10 05:11:56;;;;;;;29.52;11.02;;;;;;;;;;5012102;28;20048;-69
2022/01/10 05:14:22;;;;;;;37.45;12.38;;;;;;;;;;5012241;28;20026;-68
2022/01/10 05:16:47;;;;;;;37.33;11.10;;;;;;;;;;5012355;28;20033;-69
2022/01/10 05:19:12;;;;;;;34.85;11.55;;;;;;;;;;5011265;28;20025;-68
2022/01/10 05:21:37;;;;;;;35.63;12.57;;;;;;;;;;5011180;28;20420;-68
2022/01/10 05:24:03;;;;;;;37.97;12.65;;;;;;;;;;5010245;28;20525;-68
2022/01/10 05:26:28;;;;;;;29.80;12.02;;;;;;;;;;5010516;28;20014;-68
2022/01/10 05:28:55;;;;;;;37.00;14.27;;;;;;;;;;5010028;28;20340;-68
2022/01/10 05:31:20;;;;;;;32.83;13.20;;;;;;;;;;5009890;28;20033;-68
2022/01/10 05:33:45;;;;;;;32.03;12.45;;;;;;;;;;5009121;28;20030;-69
2022/01/10 05:36:10;;;;;;;36.60;12.73;;;;;;;;;;5010319;28;20455;-68
2022/01/10 05:38:36;;;;;;;35.13;13.02;;;;;;;;;;5009542;28;20061;-69
2022/01/10 05:41:01;;;;;;;35.88;12.75;;;;;;;;;;5010107;28;20462;-68
2022/01/10 05:43:26;;;;;;;33.28;13.07;;;;;;;;;;5010272;28;20161;-68
2022/01/10 05:45:51;;;;;;;39.17;14.23;;;;;;;;;;5009330;28;20034;-68
2022/01/10 05:48:22;;;;;;;33.05;12.85;;;;;;;;;;5009617;28;20548;-68
2022/01/10 05:50:48;;;;;;;43.13;12.43;;;;;;;;;;5009307;28;20034;-68
2022/01/10 05:53:13;;;;;;;31.02;13.95;;;;;;;;;;5009741;28;20028;-68
2022/01/10 05:55:39;;;;;;;30.42;12.85;;;;;;;;;;5009379;28;20022;-68
2022/01/10 05:58:04;;;;;;;27.10;11.88;;;;;;;;;;5008772;28;20359;-69
2022/01/10 06:00:30;;;;;;;37.90;11.98;;;;;;;;;;5003748;28;20022;-68
2022/01/10 06:02:55;;;;;;;42.00;12.10;;;;;;;;;;5008660;28;20560;-68
2022/01/10 06:05:20;;;;;;;41.20;12.68;;;;;;;;;;5009659;28;20061;-68
2022/01/10 06:07:46;;;;;;;44.70;14.35;;;;;;;;;;5009631;28;20057;-68
2022/01/10 06:10:11;;;;;;;35.50;13.13;;;;;;;;;;5009206;28;20478;-68
2022/01/10 06:12:36;;;;;;;38.15;12.50;;;;;;;;;;5007658;28;20486;-68
2022/01/10 06:15:02;;;;;;;29.15;12.93;;;;;;;;;;5009079;28;20049;-68
2022/01/10 06:17:27;;;;;;;32.40;12.93;;;;;;;;;;5008041;28;20022;-68
2022/01/10 06:19:52;;;;;;;36.13;14.18;;;;;;;;;;5009266;28;20077;-68
2022/01/10 06:22:17;;;;;;;38.60;14.10;;;;;;;;;;5009355;28;20109;-69
2022/01/10 06:24:43;;;;;;;37.47;14.23;;;;;;;;;;5009405;28;20037;-68
2022/01/10 06:27:08;;;;;;;38.42;13.60;;;;;;;;;;5007129;28;20069;-69
2022/01/10 06:29:33;;;;;;;49.00;15.15;;;;;;;;;;5007907;28;20175;-69
2022/01/10 06:31:58;;;;;;;41.38;13.30;;;;;;;;;;5008492;28;20478;-68
2022/01/10 06:34:24;;;;;;;43.22;14.60;;;;;;;;;;5003803;28;20451;-68
2022/01/10 06:36:49;;;;;;;40.10;14.45;;;;;;;;;;5008181;28;20029;-68
2022/01/10 06:39:14;;;;;;;44.15;14.57;;;;;;;;;;5008689;28;20493;-68
2022/01/10 06:41:39;;;;;;;48.65;15.27;;;;;;;;;;5007612;28;20022;-68
2022/01/10 06:44:04;;;;;;;54.90;15.48;;;;;;;;;;5007075;28;20355;-68
2022/01/10 06:46:30;;;;;;;31.85;13.02;;;;;;;;;;5007453;28;20028;-68
2022/01/10 06:48:55;;;;;;;41.65;15.57;;;;;;;;;;5008228;28;20029;-68
2022/01/10 06:51:20;;;;;;;46.17;14.63;;;;;;;;;;5008836;28;20026;-68
2022/01/10 06:53:45;;;;;;;40.85;14.50;;;;;;;;;;5006735;28;20328;-68
2022/01/10 06:56:10;;;;;;;47.67;15.20;;;;;;;;;;5007777;28;20044;-68
2022/01/10 06:58:36;;;;;;;42.83;14.30;;;;;;;;;;5009304;28;20453;-69
2022/01/10 07:01:01;;;;;;;39.42;14.18;;;;;;;;;;5009919;28;20030;-68
2022/01/10 07:03:26;;;;;;;38.33;13.73;;;;;;;;;;5010212;28;20365;-68
2022/01/10 07:05:52;;;;;;;39.63;14.47;;;;;;;;;;5009928;28;20436;-68
2022/01/10 07:08:17;;;;;;;38.15;15.05;;;;;;;;;;5010289;28;20281;-68
2022/01/10 07:10:42;;;;;;;39.00;13.35;;;;;;;;;;5009373;28;20022;-68
2022/01/10 07:13:07;;;;;;;37.05;14.38;;;;;;;;;;5009732;28;20037;-69
2022/01/10 07:15:32;;;;;;;35.67;14.80;;;;;;;;;;5010047;28;20021;-68
2022/01/10 07:17:57;;;;;;;43.17;14.80;;;;;;;;;;5010402;28;20017;-69
2022/01/10 07:20:23;;;;;;;29.55;13.82;;;;;;;;;;5010323;28;20026;-68
2022/01/10 07:22:48;;;;;;;33.83;13.50;;;;;;;;;;5009486;28;20112;-68
2022/01/10 07:25:14;;;;;;;42.50;14.68;;;;;;;;;;5010028;28;20471;-69
2022/01/10 07:27:39;;;;;;;33.67;13.25;;;;;;;;;;5009421;28;20037;-68
2022/01/10 07:30:05;;;;;;;39.25;12.68;;;;;;;;;;5010207;28;20017;-68
2022/01/10 07:32:30;;;;;;;36.08;13.73;;;;;;;;;;5010565;28;20489;-69
2022/01/10 07:34:56;;;;;;;34.67;14.13;;;;;;;;;;5009940;28;20540;-68
2022/01/10 07:37:21;;;;;;;32.65;13.52;;;;;;;;;;5005064;28;20457;-68
2022/01/10 07:39:46;;;;;;;30.92;13.80;;;;;;;;;;4999749;28;20479;-69
2022/01/10 07:42:11;;;;;;;35.88;14.40;;;;;;;;;;5004950;28;20030;-68
2022/01/10 07:44:36;;;;;;;37.03;14.40;;;;;;;;;;5006277;28;20040;-69
2022/01/10 07:47:02;;;;;;;34.33;13.30;;;;;;;;;;5012465;28;20389;-68
2022/01/10 07:49:27;;;;;;;36.75;14.65;;;;;;;;;;5011722;28;20026;-68
2022/01/10 07:51:53;;;;;;;32.83;13.48;;;;;;;;;;5009435;28;20045;-69
2022/01/10 07:54:18;;;;;;;41.53;13.50;;;;;;;;;;5009804;28;20029;-68
2022/01/10 07:56:43;;;;;;;38.20;14.20;;;;;;;;;;5013325;28;20028;-68
2022/01/10 07:59:09;;;;;;;36.83;14.68;;;;;;;;;;5013006;28;20025;-68
2022/01/10 08:01:34;;;;;;;37.70;13.50;;;;;;;;;;5012807;28;20672;-68
2022/01/10 08:03:59;;;;;;;41.15;14.85;;;;;;;;;;5013729;28;20097;-68
2022/01/10 08:06:24;;;;;;;31.88;13.77;;;;;;;;;;5013230;28;20040;-68
2022/01/10 08:08:50;;;;;;;41.55;14.63;;;;;;;;;;5012992;28;20037;-68
2022/01/10 08:11:15;;;;;;;31.65;14.10;;;;;;;;;;5012492;28;20101;-68
2022/01/10 08:13:41;;;;;;;40.15;14.57;;;;;;;;;;5012487;28;20041;-68
2022/01/10 08:16:08;;;;;;;41.17;14.45;;;;;;;;;;5012742;28;20048;-69
2022/01/10 08:18:34;;;;;;;41.10;14.45;;;;;;;;;;5015343;28;20104;-68
2022/01/10 08:20:59;;;;;;;44.72;15.32;;;;;;;;;;5012687;28;20030;-68
2022/01/10 08:23:24;;;;;;;39.33;14.90;;;;;;;;;;5003207;28;20099;-68
2022/01/10 08:25:49;;;;;;;50.93;14.77;;;;;;;;;;5012281;28;20033;-68
2022/01/10 08:28:15;;;;;;;42.08;15.32;;;;;;;;;;5012793;28;20792;-69
2022/01/10 08:30:40;;;;;;;47.70;16.45;;;;;;;;;;5012559;28;20022;-69
2022/01/10 08:33:05;;;;;;;41.42;16.20;;;;;;;;;;5011017;28;20022;-68
2022/01/10 08:35:30;;;;;;;40.28;15.00;;;;;;;;;;5003131;28;20053;-68
2022/01/10 08:37:56;;;;;;;36.80;15.23;;;;;;;;;;5004757;28;20418;-68
2022/01/10 08:40:21;;;;;;;37.60;14.48;;;;;;;;;;5011674;28;20017;-68
2022/01/10 08:42:46;;;;;;;39.80;15.40;;;;;;;;;;5005359;28;20473;-67
2022/01/10 08:45:12;;;;;;;29.88;13.90;;;;;;;;;;5008883;28;21466;-67
2022/01/10 08:47:37;;;;;;;36.88;14.07;;;;;;;;;;5007525;28;20029;-67
2022/01/10 08:50:03;;;;;;;29.83;14.10;;;;;;;;;;5010878;28;20029;-67
2022/01/10 08:52:28;;;;;;;37.53;16.85;;;;;;;;;;5008068;28;20029;-68
2022/01/10 08:54:54;;;;;;;34.38;13.13;;;;;;;;;;5007119;28;20073;-68
2022/01/10 08:57:19;;;;;;;33.92;12.98;;;;;;;;;;5009052;28;20025;-68
2022/01/10 08:59:44;;;;;;;32.00;13.10;;;;;;;;;;5005825;28;20459;-68
2022/01/10 09:02:10;;;;;;;34.67;13.68;;;;;;;;;;5010465;28;20041;-68
2022/01/10 09:04:37;;;;;;;38.17;13.43;;;;;;;;;;5010222;28;20030;-68
2022/01/10 09:07:02;;;;;;;35.55;12.43;;;;;;;;;;5008545;28;20021;-68
2022/01/10 09:09:28;;;;;;;31.00;13.73;;;;;;;;;;5010435;28;20018;-68
2022/01/10 09:11:53;;;;;;;28.77;11.40;;;;;;;;;;5008059;28;20104;-68
2022/01/10 09:14:18;;;;;;;30.13;11.90;;;;;;;;;;5007869;28;20037;-68
2022/01/10 09:16:44;;;;;;;24.25;11.18;;;;;;;;;;5007635;28;20044;-68
2022/01/10 09:19:09;;;;;;;23.25;11.30;;;;;;;;;;5008736;28;20022;-68
2022/01/10 09:21:35;;;;;;;26.77;12.50;;;;;;;;;;5008722;28;20473;-68
2022/01/10 09:24:00;;;;;;;26.90;11.00;;;;;;;;;;5010862;28;20548;-68
2022/01/10 09:26:25;;;;;;;26.52;11.18;;;;;;;;;;5006862;28;20021;-69
2022/01/10 09:28:51;;;;;;;21.50;10.90;;;;;;;;;;5010139;28;20362;-69
2022/01/10 09:31:16;;;;;;;23.42;11.32;;;;;;;;;;5004097;28;20376;-69
2022/01/10 09:33:42;;;;;;;31.10;11.48;;;;;;;;;;5002322;28;20351;-69
2022/01/10 09:36:07;;;;;;;23.73;10.68;;;;;;;;;;5007972;28;20462;-69
2022/01/10 09:38:32;;;;;;;24.45;11.68;;;;;;;;;;5007096;28;20017;-70
2022/01/10 09:40:57;;;;;;;25.87;12.03;;;;;;;;;;5009512;28;20034;-70
2022/01/10 09:43:23;;;;;;;31.27;12.13;;;;;;;;;;5009452;28;20300;-70
2022/01/10 09:45:48;;;;;;;26.70;11.68;;;;;;;;;;5011497;28;20037;-70
2022/01/10 09:48:14;;;;;;;32.65;11.80;;;;;;;;;;5011799;28;20080;-70
2022/01/10 09:50:39;;;;;;;30.63;11.52;;;;;;;;;;5011094;28;20076;-70
2022/01/10 09:53:05;;;;;;;29.75;11.63;;;;;;;;;;5010004;28;20088;-70
2022/01/10 09:55:32;;;;;;;26.85;12.48;;;;;;;;;;5010921;28;20013;-70
2022/01/10 09:57:58;;;;;;;24.00;10.90;;;;;;;;;;5011450;28;20121;-70
2022/01/10 10:00:24;;;;;;;25.10;10.48;;;;;;;;;;5009449;28;20522;-69
2022/01/10 10:02:49;;;;;;;24.63;8.80;;;;;;;;;;5010579;28;20492;-70
2022/01/10 10:05:15;;;;;;;25.10;8.88;;;;;;;;;;5010060;28;20554;-70
2022/01/10 10:07:40;;;;;;;33.22;10.15;;;;;;;;;;5005922;28;20026;-69
2022/01/10 10:10:12;;;;;;;31.08;9.48;;;;;;;;;;5006363;28;20033;-70
2022/01/10 10:12:44;;;;;;;29.50;8.52;;;;;;;;;;5008385;28;20693;-70
2022/01/10 10:15:12;;;;;;;21.77;8.82;;;;;;;;;;5009627;28;20559;-69
2022/01/10 10:17:38;;;;;;;23.13;8.73;;;;;;;;;;5008378;28;20390;-69
2022/01/10 10:20:29;;;;;;;19.05;9.23;;;;;;;;;;5004782;28;20025;-70
2022/01/10 10:22:55;;;;;;;17.02;7.53;;;;;;;;;;4997896;28;20034;-69
2022/01/10 10:25:20;;;;;;;29.90;9.60;;;;;;;;;;5008708;28;20030;-69
2022/01/10 10:27:46;;;;;;;31.45;8.35;;;;;;;;;;5006668;28;20084;-69
2022/01/10 10:30:18;;;;;;;25.65;8.57;;;;;;;;;;5008458;28;20075;-70
2022/01/10 10:32:43;;;;;;;28.42;10.18;;;;;;;;;;5006866;28;20549;-69
2022/01/10 10:35:08;;;;;;;27.90;9.70;;;;;;;;;;5004838;28;20025;-70
2022/01/10 10:37:37;;;;;;;27.35;9.05;;;;;;;;;;5003831;28;20359;-69
2022/01/10 10:40:05;;;;;;;27.33;9.52;;;;;;;;;;5008827;28;20037;-69
2022/01/10 10:42:32;;;;;;;23.98;10.13;;;;;;;;;;5007024;28;20109;-69
2022/01/10 10:44:57;;;;;;;21.15;8.45;;;;;;;;;;5007682;28;20050;-70
2022/01/10 10:47:25;;;;;;;22.40;9.25;;;;;;;;;;4998283;28;20422;-69
2022/01/10 10:49:55;;;;;;;26.92;9.40;;;;;;;;;;5009157;28;20022;-70
2022/01/10 10:52:21;;;;;;;28.92;7.55;;;;;;;;;;5005849;28;20037;-69
2022/01/10 10:54:46;;;;;;;31.80;9.10;;;;;;;;;;5003416;28;20026;-69
2022/01/10 10:57:11;;;;;;;27.60;9.80;;;;;;;;;;5009688;28;20334;-70
2022/01/10 10:59:43;;;;;;;26.80;8.65;;;;;;;;;;5006842;28;20275;-69
2022/01/10 11:02:09;;;;;;;24.90;7.47;;;;;;;;;;5000895;28;20022;-69
2022/01/10 11:04:34;;;;;;;22.90;8.82;;;;;;;;;;5005083;28;20023;-69
2022/01/10 11:06:59;;;;;;;21.33;7.20;;;;;;;;;;5008673;28;20498;-69
2022/01/10 11:09:25;;;;;;;24.55;7.90;;;;;;;;;;5010071;28;20018;-69
2022/01/10 11:11:50;;;;;;;33.03;7.63;;;;;;;;;;5009868;28;20033;-69
2022/01/10 11:14:17;;;;;;;25.50;9.63;;;;;;;;;;5008811;28;20029;-69
2022/01/10 11:16:43;;;;;;;20.77;6.05;;;;;;;;;;5001814;28;20064;-69
2022/01/10 11:19:11;;;;;;;22.85;9.40;;;;;;;;;;5003333;28;20056;-69
2022/01/10 11:21:39;;;;;;;31.23;9.00;;;;;;;;;;5008946;28;20049;-69
2022/01/10 11:24:05;;;;;;;32.13;9.75;;;;;;;;;;5013816;28;20378;-69
2022/01/10 11:26:39;;;;;;;29.63;8.88;;;;;;;;;;5011607;28;20030;-69
2022/01/10 11:29:05;;;;;;;29.73;10.85;;;;;;;;;;5009609;28;20061;-69
2022/01/10 11:31:31;;;;;;;28.77;9.32;;;;;;;;;;5013447;28;20032;-69
2022/01/10 11:33:58;;;;;;;32.97;11.32;;;;;;;;;;5009721;28;20018;-68
2022/01/10 11:36:25;;;;;;;34.15;10.40;;;;;;;;;;5007151;28;20389;-69
2022/01/10 11:38:52;;;;;;;24.38;10.70;;;;;;;;;;5013135;28;20098;-69
2022/01/10 11:41:22;;;;;;;26.35;9.23;;;;;;;;;;5013506;28;20057;-69
2022/01/10 11:43:51;;;;;;;32.67;8.30;;;;;;;;;;5013165;28;20024;-69
2022/01/10 11:46:39;;;;;;;31.08;6.82;;;;;;;;;;5006849;28;20076;-69
2022/01/10 11:49:08;;;;;;;36.47;11.32;;;;;;;;;;4998573;28;20038;-69
2022/01/10 11:51:34;;;;;;;32.35;10.82;;;;;;;;;;5011173;28;20037;-69
2022/01/10 11:54:16;;;;;;;32.92;9.88;;;;;;;;;;5006726;28;20032;-68
2022/01/10 11:56:46;;;;;;;25.92;8.20;;;;;;;;;;5008324;28;20374;-72
2022/01/10 11:59:11;;;;;;;24.35;9.23;;;;;;;;;;5011211;28;20010;-69
2022/01/10 12:01:38;;;;;;;37.53;10.02;;;;;;;;;;5003117;28;20023;-69
2022/01/10 12:04:03;;;;;;;33.85;10.50;;;;;;;;;;5010413;28;22244;-69
2022/01/10 12:06:29;;;;;;;34.47;10.68;;;;;;;;;;5006000;28;20030;-69
2022/01/10 12:08:54;;;;;;;31.35;10.40;;;;;;;;;;5007026;28;20037;-69
2022/01/10 12:11:23;;;;;;;25.48;9.27;;;;;;;;;;5012130;28;20009;-69
2022/01/10 12:13:48;;;;;;;27.35;8.85;;;;;;;;;;5013416;28;20049;-69
2022/01/10 12:16:14;;;;;;;22.83;8.73;;;;;;;;;;5006206;28;20532;-69
2022/01/10 12:18:39;;;;;;;24.10;8.85;;;;;;;;;;5006666;28;20275;-69
2022/01/10 12:21:04;;;;;;;13.60;5.20;;;;;;;;;;5010890;28;20061;-70
2022/01/10 12:23:29;;;;;;;31.13;10.93;;;;;;;;;;5005913;28;20276;-69
2022/01/10 12:25:54;;;;;;;24.83;10.27;;;;;;;;;;5007446;28;20291;-69
2022/01/10 12:28:19;;;;;;;25.05;8.57;;;;;;;;;;5012842;28;20289;-69
2022/01/10 12:30:45;;;;;;;23.03;9.33;;;;;;;;;;5008647;28;20032;-69
2022/01/10 12:33:10;;;;;;;24.10;6.97;;;;;;;;;;5012021;28;20281;-69
2022/01/10 12:35:35;;;;;;;26.85;9.52;;;;;;;;;;5009253;28;20040;-69
2022/01/10 12:38:01;;;;;;;19.30;5.88;;;;;;;;;;5002210;28;20466;-70
2022/01/10 12:40:31;;;;;;;51.00;11.32;;;;;;;;;;5010404;28;20027;-69
2022/01/10 12:42:57;;;;;;;27.48;10.10;;;;;;;;;;5009033;28;20054;-69
2022/01/10 12:45:22;;;;;;;32.30;11.52;;;;;;;;;;5007622;28;20034;-69
2022/01/10 12:47:48;;;;;;;26.60;7.20;;;;;;;;;;5009555;28;20026;-69
2022/01/10 12:50:13;;;;;;;35.80;11.40;;;;;;;;;;5010416;28;20028;-68
2022/01/10 12:52:39;;;;;;;34.47;10.48;;;;;;;;;;5005085;28;20014;-69
2022/01/10 12:55:04;;;;;;;31.98;11.57;;;;;;;;;;5005018;28;20013;-69
2022/01/10 12:57:29;;;;;;;27.85;10.77;;;;;;;;;;5005376;28;20028;-69
2022/01/10 12:59:56;;;;;;;35.55;12.23;;;;;;;;;;5004950;28;20026;-69
2022/01/10 13:02:22;;;;;;;25.80;9.57;;;;;;;;;;5007676;28;20034;-69
2022/01/10 13:04:47;;;;;;;27.90;10.18;;;;;;;;;;5008510;28;20091;-69
2022/01/10 13:07:13;;;;;;;31.52;10.68;;;;;;;;;;5003755;28;20018;-68
2022/01/10 13:09:40;;;;;;;29.15;11.40;;;;;;;;;;5004850;28;20022;-68
2022/01/10 13:15:14;;;;;;;21.80;8.57;;;;;;;;;;4988499;28;20026;-69
2022/01/10 13:17:50;;;;;;;28.88;11.00;;;;;;;;;;5002986;28;20033;-68
2022/01/10 13:20:15;;;;;;;29.52;11.38;;;;;;;;;;5010886;28;20037;-69
2022/01/10 13:22:42;;;;;;;38.88;11.40;;;;;;;;;;5010686;28;20471;-69
2022/01/10 13:25:18;;;;;;;34.45;10.73;;;;;;;;;;5010117;28;20123;-69
2022/01/10 13:27:51;;;;;;;30.75;8.82;;;;;;;;;;5003757;28;20026;-69
2022/01/10 13:30:20;;;;;;;31.95;9.50;;;;;;;;;;5007660;28;20025;-70
2022/01/10 13:32:46;;;;;;;40.35;11.00;;;;;;;;;;5007596;28;20014;-69
2022/01/10 13:35:12;;;;;;;28.02;11.38;;;;;;;;;;5006838;28;20025;-69
2022/01/10 13:37:38;;;;;;;30.77;10.73;;;;;;;;;;5010114;28;20040;-69
2022/01/10 13:40:06;;;;;;;30.45;11.70;;;;;;;;;;5003644;28;20037;-69
2022/01/10 13:42:35;;;;;;;31.52;11.38;;;;;;;;;;5007266;28;20022;-69
2022/01/10 13:45:01;;;;;;;30.25;11.13;;;;;;;;;;5010066;28;20390;-69
2022/01/10 13:47:26;;;;;;;38.60;12.20;;;;;;;;;;5006795;28;20117;-69
2022/01/10 13:49:52;;;;;;;33.45;12.85;;;;;;;;;;5010494;28;20093;-68
2022/01/10 13:52:18;;;;;;;32.63;11.57;;;;;;;;;;5003904;28;20113;-68
2022/01/10 13:54:43;;;;;;;40.92;13.80;;;;;;;;;;5002936;28;20553;-69
2022/01/10 13:57:18;;;;;;;36.15;12.90;;;;;;;;;;5005533;28;20025;-69
2022/01/10 13:59:44;;;;;;;32.08;11.00;;;;;;;;;;5004158;28;20021;-68
2022/01/10 14:02:10;;;;;;;30.40;12.90;;;;;;;;;;5004897;28;20025;-69
2022/01/10 14:04:35;;;;;;;24.65;7.63;;;;;;;;;;5006124;28;20014;-69
2022/01/10 14:07:06;;;;;;;33.65;11.18;;;;;;;;;;5007295;28;20022;-69
2022/01/10 14:09:33;;;;;;;28.85;11.32;;;;;;;;;;5007481;28;20458;-68
2022/01/10 14:11:58;;;;;;;30.02;11.48;;;;;;;;;;5010155;28;20506;-69
2022/01/10 14:14:26;;;;;;;32.20;12.77;;;;;;;;;;5008565;28;20034;-69
2022/01/10 14:16:55;;;;;;;32.13;12.45;;;;;;;;;;5008321;28;20026;-68
2022/01/10 14:19:21;;;;;;;37.38;13.07;;;;;;;;;;5008576;28;20467;-68
2022/01/10 14:21:46;;;;;;;34.10;14.25;;;;;;;;;;5005850;28;20040;-68
2022/01/10 14:24:12;;;;;;;39.63;13.73;;;;;;;;;;5006127;28;20478;-67